createdAt,value
2023-02-11T00:00:48.360Z,1028.61
2023-02-11T00:01:48.048Z,1028.59
2023-02-11T00:02:48.234Z,1028.57
2023-02-11T00:03:48.117Z,1028.58
2023-02-11T00:04:48.037Z,1028.51
2023-02-11T00:05:48.242Z,1028.55
2023-02-11T00:06:47.978Z,1028.51
2023-02-11T00:07:47.983Z,1028.52
2023-02-11T00:08:47.936Z,1028.57
2023-02-11T00:09:48.002Z,1028.58
2023-02-11T00:10:48.248Z,1028.59
2023-02-11T00:11:48.007Z,1028.58
2023-02-11T00:12:47.894Z,1028.63
2023-02-11T00:13:47.917Z,1028.63
2023-02-11T00:14:47.927Z,1028.57
2023-02-11T00:15:48.171Z,1028.60
2023-02-11T00:16:48.034Z,1028.59
2023-02-11T00:17:47.900Z,1028.64
2023-02-11T00:18:47.861Z,1028.61
2023-02-11T00:19:47.868Z,1028.63
2023-02-11T00:20:47.839Z,1028.64
2023-02-11T00:21:47.819Z,1028.64
2023-02-11T00:22:47.787Z,1028.66
2023-02-11T00:23:47.817Z,1028.61
2023-02-11T00:24:47.803Z,1028.64
2023-02-11T00:25:47.901Z,1028.59
2023-02-11T00:26:47.756Z,1028.56
2023-02-11T00:27:48.426Z,1028.54
2023-02-11T00:28:47.764Z,1028.52
2023-02-11T00:29:47.783Z,1028.51
2023-02-11T00:30:47.845Z,1028.50
2023-02-11T00:31:48.074Z,1028.50
2023-02-11T00:32:47.723Z,1028.44
2023-02-11T00:33:47.813Z,1028.44
2023-02-11T00:34:47.725Z,1028.40
2023-02-11T00:35:47.677Z,1028.44
2023-02-11T00:36:47.738Z,1028.42
2023-02-11T00:37:47.776Z,1028.44
2023-02-11T00:38:47.655Z,1028.43
2023-02-11T00:39:47.649Z,1028.39
2023-02-11T00:40:47.632Z,1028.40
2023-02-11T00:41:47.673Z,1028.38
2023-02-11T00:42:47.608Z,1028.42
2023-02-11T00:43:47.601Z,1028.42
2023-02-11T00:44:47.648Z,1028.44
2023-02-11T00:45:47.758Z,1028.38
2023-02-11T00:46:47.569Z,1028.38
2023-02-11T00:47:47.658Z,1028.39
2023-02-11T00:48:47.567Z,1028.42
2023-02-11T00:49:47.564Z,1028.41
2023-02-11T00:50:47.565Z,1028.40
2023-02-11T00:51:47.668Z,1028.40
2023-02-11T00:52:47.536Z,1028.38
2023-02-11T00:53:47.632Z,1028.42
2023-02-11T00:54:47.510Z,1028.45
2023-02-11T00:55:47.623Z,1028.45
2023-02-11T00:56:47.512Z,1028.46
2023-02-11T00:57:47.446Z,1028.46
2023-02-11T00:58:47.447Z,1028.47
2023-02-11T00:59:47.502Z,1028.39
2023-02-11T01:00:47.444Z,1028.42
2023-02-11T01:01:47.591Z,1028.40
2023-02-11T01:02:47.399Z,1028.37
2023-02-11T01:03:47.445Z,1028.39
2023-02-11T01:04:47.461Z,1028.36
2023-02-11T01:05:47.597Z,1028.39
2023-02-11T01:06:47.458Z,1028.40
2023-02-11T01:07:47.504Z,1028.43
2023-02-11T01:08:47.360Z,1028.48
2023-02-11T01:09:47.345Z,1028.46
2023-02-11T01:10:47.363Z,1028.46
2023-02-11T01:11:47.324Z,1028.48
2023-02-11T01:12:47.338Z,1028.49
2023-02-11T01:13:47.342Z,1028.51
2023-02-11T01:14:47.306Z,1028.52
2023-02-11T01:15:47.367Z,1028.52
2023-02-11T01:16:47.318Z,1028.53
2023-02-11T01:17:47.271Z,1028.53
2023-02-11T01:18:47.309Z,1028.56
2023-02-11T01:19:47.283Z,1028.60
2023-02-11T01:20:47.244Z,1028.58
2023-02-11T01:21:47.276Z,1028.60
2023-02-11T01:22:47.955Z,1028.60
2023-02-11T01:23:47.242Z,1028.60
2023-02-11T01:24:47.194Z,1028.64
2023-02-11T01:25:48.243Z,1028.60
2023-02-11T01:26:47.208Z,1028.61
2023-02-11T01:27:47.580Z,1028.56
2023-02-11T01:28:47.150Z,1028.49
2023-02-11T01:29:47.252Z,1028.46
2023-02-11T01:30:47.176Z,1028.42
2023-02-11T01:31:47.206Z,1028.42
2023-02-11T01:32:47.107Z,1028.38
2023-02-11T01:33:47.280Z,1028.37
2023-02-11T01:34:47.170Z,1028.34
2023-02-11T01:35:47.153Z,1028.32
2023-02-11T01:36:47.093Z,1028.32
2023-02-11T01:37:47.115Z,1028.35
2023-02-11T01:38:47.095Z,1028.38
2023-02-11T01:39:47.071Z,1028.40
2023-02-11T01:40:47.058Z,1028.43
2023-02-11T01:41:47.075Z,1028.45
2023-02-11T01:42:49.406Z,1028.46
2023-02-11T01:43:47.947Z,1028.46
2023-02-11T01:44:46.982Z,1028.46
2023-02-11T01:45:47.078Z,1028.46
2023-02-11T01:46:47.065Z,1028.45
2023-02-11T01:47:46.970Z,1028.45
2023-02-11T01:48:47.029Z,1028.41
2023-02-11T01:49:46.978Z,1028.40
2023-02-11T01:50:47.061Z,1028.36
2023-02-11T01:51:46.939Z,1028.34
2023-02-11T01:52:46.998Z,1028.30
2023-02-11T01:53:46.941Z,1028.29
2023-02-11T01:54:46.913Z,1028.21
2023-02-11T01:55:46.904Z,1028.18
2023-02-11T01:56:47.448Z,1028.15
2023-02-11T01:57:46.948Z,1028.15
2023-02-11T01:58:46.880Z,1028.17
2023-02-11T01:59:46.894Z,1028.20
2023-02-11T02:00:46.836Z,1028.18
2023-02-11T02:01:46.932Z,1028.13
2023-02-11T02:02:46.833Z,1028.08
2023-02-11T02:03:46.887Z,1028.02
2023-02-11T02:04:46.857Z,1027.98
2023-02-11T02:05:46.784Z,1027.98
2023-02-11T02:06:46.804Z,1027.94
2023-02-11T02:07:46.768Z,1027.96
2023-02-11T02:08:46.789Z,1028.00
2023-02-11T02:09:46.893Z,1028.05
2023-02-11T02:10:46.765Z,1028.11
2023-02-11T02:11:46.760Z,1028.12
2023-02-11T02:12:46.759Z,1028.14
2023-02-11T02:13:46.711Z,1028.22
2023-02-11T02:14:46.703Z,1028.24
2023-02-11T02:15:46.725Z,1028.25
2023-02-11T02:16:46.692Z,1028.26
2023-02-11T02:17:46.698Z,1028.25
2023-02-11T02:18:46.649Z,1028.25
2023-02-11T02:19:46.639Z,1028.25
2023-02-11T02:20:46.642Z,1028.26
2023-02-11T02:21:46.658Z,1028.27
2023-02-11T02:22:46.609Z,1028.27
2023-02-11T02:23:46.641Z,1028.24
2023-02-11T02:24:46.611Z,1028.25
2023-02-11T02:25:46.590Z,1028.19
2023-02-11T02:26:46.595Z,1028.15
2023-02-11T02:27:46.581Z,1028.10
2023-02-11T02:28:46.579Z,1028.07
2023-02-11T02:29:46.550Z,1028.08
2023-02-11T02:30:46.531Z,1028.08
2023-02-11T02:31:46.576Z,1028.06
2023-02-11T02:32:46.535Z,1028.06
2023-02-11T02:33:46.521Z,1028.05
2023-02-11T02:34:46.530Z,1028.05
2023-02-11T02:35:46.510Z,1028.04
2023-02-11T02:36:46.463Z,1028.08
2023-02-11T02:37:46.481Z,1028.06
2023-02-11T02:38:46.453Z,1028.02
2023-02-11T02:39:46.433Z,1027.99
2023-02-11T02:40:46.442Z,1027.94
2023-02-11T02:41:46.421Z,1027.89
2023-02-11T02:42:46.458Z,1027.86
2023-02-11T02:43:46.440Z,1027.85
2023-02-11T02:44:46.409Z,1027.86
2023-02-11T02:45:46.369Z,1027.87
2023-02-11T02:46:46.455Z,1027.90
2023-02-11T02:47:46.441Z,1027.88
2023-02-11T02:48:46.392Z,1027.87
2023-02-11T02:49:46.360Z,1027.89
2023-02-11T02:50:46.373Z,1027.92
2023-02-11T02:51:46.339Z,1027.92
2023-02-11T02:52:46.347Z,1027.96
2023-02-11T02:53:46.311Z,1027.95
2023-02-11T02:54:46.326Z,1027.97
2023-02-11T02:55:46.287Z,1027.97
2023-02-11T02:56:46.300Z,1027.94
2023-02-11T02:57:46.400Z,1027.98
2023-02-11T02:58:47.344Z,1027.99
2023-02-11T02:59:46.243Z,1027.98
2023-02-11T03:00:46.287Z,1027.99
2023-02-11T03:01:46.226Z,1027.99
2023-02-11T03:02:46.260Z,1028.02
2023-02-11T03:03:46.279Z,1028.02
2023-02-11T03:04:46.226Z,1028.00
2023-02-11T03:05:46.212Z,1028.02
2023-02-11T03:06:46.218Z,1028.00
2023-02-11T03:07:46.165Z,1028.03
2023-02-11T03:08:46.259Z,1028.06
2023-02-11T03:09:46.219Z,1028.08
2023-02-11T03:10:46.144Z,1028.10
2023-02-11T03:11:46.160Z,1028.12
2023-02-11T03:12:46.184Z,1028.16
2023-02-11T03:13:46.216Z,1028.14
2023-02-11T03:14:46.138Z,1028.17
2023-02-11T03:15:46.078Z,1028.15
2023-02-11T03:16:46.086Z,1028.11
2023-02-11T03:17:46.100Z,1028.19
2023-02-11T03:18:46.086Z,1028.15
2023-02-11T03:19:46.079Z,1028.14
2023-02-11T03:20:46.067Z,1028.12
2023-02-11T03:21:46.030Z,1028.07
2023-02-11T03:22:46.064Z,1028.09
2023-02-11T03:23:46.088Z,1028.04
2023-02-11T03:24:46.021Z,1028.06
2023-02-11T03:25:46.008Z,1028.05
2023-02-11T03:26:45.974Z,1028.04
2023-02-11T03:27:46.002Z,1028.03
2023-02-11T03:28:45.996Z,1028.06
2023-02-11T03:29:45.968Z,1028.04
2023-02-11T03:30:45.973Z,1028.02
2023-02-11T03:31:46.054Z,1027.97
2023-02-11T03:32:45.940Z,1027.92
2023-02-11T03:33:45.904Z,1027.88
2023-02-11T03:34:45.915Z,1027.90
2023-02-11T03:35:45.893Z,1027.87
2023-02-11T03:36:45.937Z,1027.90
2023-02-11T03:37:45.905Z,1027.89
2023-02-11T03:38:45.886Z,1027.87
2023-02-11T03:39:45.862Z,1027.84
2023-02-11T03:40:45.885Z,1027.83
2023-02-11T03:41:45.892Z,1027.82
2023-02-11T03:42:45.859Z,1027.80
2023-02-11T03:43:45.852Z,1027.80
2023-02-11T03:44:45.841Z,1027.78
2023-02-11T03:45:45.873Z,1027.81
2023-02-11T03:46:45.830Z,1027.76
2023-02-11T03:47:45.806Z,1027.77
2023-02-11T03:48:45.770Z,1027.78
2023-02-11T03:49:45.739Z,1027.75
2023-02-11T03:50:45.762Z,1027.76
2023-02-11T03:51:45.729Z,1027.78
2023-02-11T03:52:45.734Z,1027.80
2023-02-11T03:53:45.697Z,1027.79
2023-02-11T03:54:45.786Z,1027.79
2023-02-11T03:55:45.734Z,1027.83
2023-02-11T03:56:45.706Z,1027.82
2023-02-11T03:57:45.700Z,1027.85
2023-02-11T03:58:45.761Z,1027.88
2023-02-11T03:59:45.658Z,1027.86
2023-02-11T04:00:45.717Z,1027.87
2023-02-11T04:01:45.676Z,1027.86
2023-02-11T04:02:45.806Z,1027.87
2023-02-11T04:03:45.637Z,1027.85
2023-02-11T04:04:45.639Z,1027.85
2023-02-11T04:05:45.621Z,1027.85
2023-02-11T04:06:45.613Z,1027.87
2023-02-11T04:07:45.618Z,1027.88
2023-02-11T04:08:45.630Z,1027.91
2023-02-11T04:09:45.551Z,1027.92
2023-02-11T04:10:45.553Z,1027.96
2023-02-11T04:11:45.567Z,1027.97
2023-02-11T04:12:45.560Z,1027.97
2023-02-11T04:13:45.532Z,1027.94
2023-02-11T04:14:45.549Z,1027.92
2023-02-11T04:15:47.818Z,1027.91
2023-02-11T04:16:45.516Z,1027.91
2023-02-11T04:17:45.487Z,1027.91
2023-02-11T04:18:45.500Z,1027.93
2023-02-11T04:19:45.442Z,1027.96
2023-02-11T04:20:45.485Z,1027.94
2023-02-11T04:21:45.421Z,1028.00
2023-02-11T04:22:45.471Z,1028.04
2023-02-11T04:23:45.515Z,1028.09
2023-02-11T04:24:45.420Z,1028.12
2023-02-11T04:25:45.393Z,1028.18
2023-02-11T04:26:45.448Z,1028.16
2023-02-11T04:27:45.383Z,1028.17
2023-02-11T04:28:45.395Z,1028.19
2023-02-11T04:29:45.348Z,1028.16
2023-02-11T04:30:45.400Z,1028.17
2023-02-11T04:31:45.393Z,1028.16
2023-02-11T04:32:45.328Z,1028.13
2023-02-11T04:33:45.342Z,1028.17
2023-02-11T04:34:45.379Z,1028.11
2023-02-11T04:35:45.307Z,1028.09
2023-02-11T04:36:45.352Z,1028.05
2023-02-11T04:37:45.298Z,1028.01
2023-02-11T04:38:45.301Z,1027.98
2023-02-11T04:39:45.275Z,1027.96
2023-02-11T04:40:45.245Z,1027.92
2023-02-11T04:41:45.273Z,1027.93
2023-02-11T04:42:45.266Z,1027.94
2023-02-11T04:43:45.223Z,1027.93
2023-02-11T04:44:45.232Z,1027.97
2023-02-11T04:45:45.275Z,1027.97
2023-02-11T04:46:45.211Z,1027.99
2023-02-11T04:47:45.190Z,1028.02
2023-02-11T04:48:45.194Z,1028.06
2023-02-11T04:49:45.173Z,1028.07
2023-02-11T04:50:45.182Z,1028.08
2023-02-11T04:51:47.595Z,1028.08
2023-02-11T04:52:45.190Z,1028.05
2023-02-11T04:53:45.139Z,1028.04
2023-02-11T04:54:45.118Z,1027.98
2023-02-11T04:55:45.127Z,1027.96
2023-02-11T04:56:45.112Z,1027.95
2023-02-11T04:57:45.093Z,1027.92
2023-02-11T04:58:45.137Z,1027.90
2023-02-11T04:59:45.092Z,1027.90
2023-02-11T05:00:45.076Z,1027.89
2023-02-11T05:01:45.029Z,1027.90
2023-02-11T05:02:45.103Z,1027.91
2023-02-11T05:03:45.077Z,1027.89
2023-02-11T05:04:45.030Z,1027.89
2023-02-11T05:05:45.025Z,1027.85
2023-02-11T05:06:45.008Z,1027.90
2023-02-11T05:07:44.975Z,1027.91
2023-02-11T05:08:44.981Z,1027.92
2023-02-11T05:09:44.975Z,1027.91
2023-02-11T05:10:44.967Z,1027.93
2023-02-11T05:11:44.943Z,1027.92
2023-02-11T05:12:44.976Z,1027.91
2023-02-11T05:13:44.918Z,1027.92
2023-02-11T05:14:44.918Z,1027.87
2023-02-11T05:15:44.947Z,1027.90
2023-02-11T05:16:44.950Z,1027.89
2023-02-11T05:17:44.869Z,1027.93
2023-02-11T05:18:44.890Z,1027.93
2023-02-11T05:19:44.862Z,1027.97
2023-02-11T05:20:44.894Z,1027.97
2023-02-11T05:22:00.216Z,1028.00
2023-02-11T05:22:44.854Z,1027.99
2023-02-11T05:23:44.821Z,1027.98
2023-02-11T05:24:44.832Z,1027.96
2023-02-11T05:25:44.804Z,1027.95
2023-02-11T05:26:44.778Z,1027.90
2023-02-11T05:27:44.810Z,1027.92
2023-02-11T05:28:44.794Z,1027.89
2023-02-11T05:29:44.839Z,1027.86
2023-02-11T05:30:44.819Z,1027.84
2023-02-11T05:31:44.728Z,1027.83
2023-02-11T05:32:44.734Z,1027.83
2023-02-11T05:33:44.709Z,1027.83
2023-02-11T05:34:44.716Z,1027.82
2023-02-11T05:35:44.716Z,1027.79
2023-02-11T05:36:44.720Z,1027.76
2023-02-11T05:37:44.747Z,1027.81
2023-02-11T05:38:44.691Z,1027.81
2023-02-11T05:39:44.673Z,1027.81
2023-02-11T05:40:44.689Z,1027.80
2023-02-11T05:41:44.664Z,1027.75
2023-02-11T05:42:44.624Z,1027.78
2023-02-11T05:43:44.658Z,1027.80
2023-02-11T05:44:44.621Z,1027.81
2023-02-11T05:45:44.586Z,1027.81
2023-02-11T05:46:44.674Z,1027.84
2023-02-11T05:47:44.605Z,1027.82
2023-02-11T05:48:44.565Z,1027.79
2023-02-11T05:49:44.596Z,1027.81
2023-02-11T05:50:44.606Z,1027.80
2023-02-11T05:51:44.525Z,1027.81
2023-02-11T05:52:44.539Z,1027.79
2023-02-11T05:53:44.509Z,1027.82
2023-02-11T05:54:44.532Z,1027.82
2023-02-11T05:55:44.494Z,1027.82
2023-02-11T05:56:45.055Z,1027.79
2023-02-11T05:57:44.518Z,1027.78
2023-02-11T05:58:44.694Z,1027.79
2023-02-11T05:59:44.486Z,1027.82
2023-02-11T06:00:44.490Z,1027.87
2023-02-11T06:01:44.469Z,1027.87
2023-02-11T06:02:44.506Z,1027.90
2023-02-11T06:03:44.480Z,1027.90
2023-02-11T06:04:44.461Z,1027.91
2023-02-11T06:05:44.399Z,1027.92
2023-02-11T06:06:44.406Z,1027.93
2023-02-11T06:07:44.421Z,1027.90
2023-02-11T06:08:44.400Z,1027.93
2023-02-11T06:09:44.364Z,1027.94
2023-02-11T06:10:44.485Z,1027.95
2023-02-11T06:11:44.352Z,1027.93
2023-02-11T06:12:44.361Z,1027.92
2023-02-11T06:13:44.370Z,1027.96
2023-02-11T06:14:44.336Z,1027.99
2023-02-11T06:15:44.322Z,1028.04
2023-02-11T06:16:44.287Z,1028.03
2023-02-11T06:17:44.344Z,1027.99
2023-02-11T06:18:44.291Z,1027.98
2023-02-11T06:19:44.255Z,1027.99
2023-02-11T06:20:44.296Z,1028.01
2023-02-11T06:21:44.731Z,1028.01
2023-02-11T06:22:44.277Z,1027.97
2023-02-11T06:23:44.224Z,1027.95
2023-02-11T06:25:00.350Z,1027.95
2023-02-11T06:25:44.266Z,1027.96
2023-02-11T06:26:44.240Z,1027.96
2023-02-11T06:27:44.220Z,1027.93
2023-02-11T06:28:44.264Z,1027.94
2023-02-11T06:29:44.125Z,1027.95
2023-02-11T06:30:44.163Z,1027.94
2023-02-11T06:31:44.194Z,1027.84
2023-02-11T06:32:45.738Z,1027.86
2023-02-11T06:33:44.066Z,1027.91
2023-02-11T06:34:44.162Z,1027.90
2023-02-11T06:35:44.154Z,1027.88
2023-02-11T06:36:44.088Z,1027.85
2023-02-11T06:37:44.097Z,1027.87
2023-02-11T06:38:44.075Z,1027.88
2023-02-11T06:39:44.015Z,1027.90
2023-02-11T06:40:44.003Z,1027.93
2023-02-11T06:41:44.057Z,1027.94
2023-02-11T06:42:44.013Z,1027.93
2023-02-11T06:43:43.972Z,1027.94
2023-02-11T06:44:43.983Z,1027.97
2023-02-11T06:45:43.973Z,1027.96
2023-02-11T06:46:43.996Z,1027.96
2023-02-11T06:47:43.979Z,1027.97
2023-02-11T06:48:45.035Z,1027.95
2023-02-11T06:49:43.915Z,1027.94
2023-02-11T06:50:43.909Z,1027.94
2023-02-11T06:51:43.955Z,1027.97
2023-02-11T06:52:43.905Z,1027.98
2023-02-11T06:53:43.920Z,1028.00
2023-02-11T06:54:43.874Z,1027.99
2023-02-11T06:55:43.850Z,1027.99
2023-02-11T06:56:43.848Z,1027.99
2023-02-11T06:57:43.873Z,1028.00
2023-02-11T06:58:43.866Z,1028.03
2023-02-11T06:59:43.851Z,1028.01
2023-02-11T07:00:43.831Z,1028.02
2023-02-11T07:01:43.890Z,1027.98
2023-02-11T07:02:43.922Z,1027.97
2023-02-11T07:03:43.801Z,1027.96
2023-02-11T07:04:43.779Z,1027.94
2023-02-11T07:05:43.795Z,1027.92
2023-02-11T07:06:43.757Z,1027.93
2023-02-11T07:07:43.747Z,1027.96
2023-02-11T07:08:43.779Z,1027.96
2023-02-11T07:09:43.795Z,1027.99
2023-02-11T07:10:43.720Z,1027.98
2023-02-11T07:11:43.726Z,1027.98
2023-02-11T07:12:43.725Z,1028.03
2023-02-11T07:13:43.706Z,1028.04
2023-02-11T07:14:43.660Z,1028.02
2023-02-11T07:15:43.668Z,1028.06
2023-02-11T07:16:43.630Z,1028.08
2023-02-11T07:17:43.690Z,1028.06
2023-02-11T07:18:43.617Z,1028.08
2023-02-11T07:19:43.618Z,1028.07
2023-02-11T07:20:43.622Z,1028.05
2023-02-11T07:21:43.622Z,1028.07
2023-02-11T07:22:43.638Z,1028.06
2023-02-11T07:23:43.597Z,1028.11
2023-02-11T07:24:43.582Z,1028.14
2023-02-11T07:25:43.559Z,1028.13
2023-02-11T07:26:43.539Z,1028.15
2023-02-11T07:27:43.548Z,1028.13
2023-02-11T07:28:43.630Z,1028.13
2023-02-11T07:29:43.524Z,1028.09
2023-02-11T07:30:43.520Z,1028.08
2023-02-11T07:31:43.659Z,1028.12
2023-02-11T07:32:43.471Z,1028.11
2023-02-11T07:33:43.497Z,1028.10
2023-02-11T07:34:43.494Z,1028.10
2023-02-11T07:35:43.472Z,1028.12
2023-02-11T07:36:43.490Z,1028.13
2023-02-11T07:37:43.466Z,1028.13
2023-02-11T07:38:43.418Z,1028.14
2023-02-11T07:39:43.426Z,1028.13
2023-02-11T07:40:43.403Z,1028.15
2023-02-11T07:41:43.426Z,1028.15
2023-02-11T07:42:43.396Z,1028.14
2023-02-11T07:43:43.382Z,1028.11
2023-02-11T07:44:43.364Z,1028.12
2023-02-11T07:45:43.451Z,1028.11
2023-02-11T07:46:43.378Z,1028.11
2023-02-11T07:47:43.360Z,1028.09
2023-02-11T07:48:43.323Z,1028.11
2023-02-11T07:49:43.373Z,1028.12
2023-02-11T07:50:43.376Z,1028.11
2023-02-11T07:51:43.304Z,1028.12
2023-02-11T07:52:43.280Z,1028.14
2023-02-11T07:53:43.315Z,1028.10
2023-02-11T07:54:43.339Z,1028.12
2023-02-11T07:55:43.276Z,1028.13
2023-02-11T07:56:43.246Z,1028.13
2023-02-11T07:57:43.234Z,1028.15
2023-02-11T07:58:43.278Z,1028.14
2023-02-11T07:59:43.300Z,1028.13
2023-02-11T08:00:43.226Z,1028.16
2023-02-11T08:01:43.296Z,1028.13
2023-02-11T08:02:43.363Z,1028.14
2023-02-11T08:03:43.228Z,1028.17
2023-02-11T08:04:43.210Z,1028.17
2023-02-11T08:05:43.198Z,1028.22
2023-02-11T08:06:43.163Z,1028.26
2023-02-11T08:07:43.277Z,1028.32
2023-02-11T08:08:43.183Z,1028.38
2023-02-11T08:09:43.144Z,1028.41
2023-02-11T08:10:43.244Z,1028.44
2023-02-11T08:11:43.136Z,1028.49
2023-02-11T08:12:43.101Z,1028.49
2023-02-11T08:13:43.096Z,1028.50
2023-02-11T08:14:43.170Z,1028.48
2023-02-11T08:15:43.072Z,1028.46
2023-02-11T08:16:43.103Z,1028.48
2023-02-11T08:17:43.049Z,1028.46
2023-02-11T08:18:43.019Z,1028.49
2023-02-11T08:19:43.089Z,1028.47
2023-02-11T08:20:43.004Z,1028.49
2023-02-11T08:21:43.028Z,1028.50
2023-02-11T08:22:43.009Z,1028.52
2023-02-11T08:23:42.993Z,1028.54
2023-02-11T08:24:42.989Z,1028.53
2023-02-11T08:25:42.991Z,1028.52
2023-02-11T08:26:42.975Z,1028.52
2023-02-11T08:27:42.949Z,1028.52
2023-02-11T08:28:42.970Z,1028.54
2023-02-11T08:29:42.929Z,1028.53
2023-02-11T08:30:42.987Z,1028.55
2023-02-11T08:31:43.070Z,1028.58
2023-02-11T08:32:42.992Z,1028.57
2023-02-11T08:33:42.885Z,1028.58
2023-02-11T08:34:42.878Z,1028.62
2023-02-11T08:35:42.867Z,1028.62
2023-02-11T08:36:42.851Z,1028.63
2023-02-11T08:37:42.837Z,1028.64
2023-02-11T08:38:42.842Z,1028.66
2023-02-11T08:39:42.812Z,1028.62
2023-02-11T08:40:42.896Z,1028.66
2023-02-11T08:41:42.843Z,1028.66
2023-02-11T08:42:42.840Z,1028.63
2023-02-11T08:43:42.815Z,1028.61
2023-02-11T08:44:43.032Z,1028.63
2023-02-11T08:45:42.831Z,1028.65
2023-02-11T08:46:42.755Z,1028.66
2023-02-11T08:47:42.745Z,1028.68
2023-02-11T08:48:42.809Z,1028.69
2023-02-11T08:49:42.753Z,1028.70
2023-02-11T08:50:42.719Z,1028.70
2023-02-11T08:51:42.726Z,1028.70
2023-02-11T08:52:42.724Z,1028.73
2023-02-11T08:53:42.708Z,1028.72
2023-02-11T08:54:42.668Z,1028.73
2023-02-11T08:55:42.679Z,1028.71
2023-02-11T08:56:42.696Z,1028.70
2023-02-11T08:57:42.660Z,1028.72
2023-02-11T08:58:42.664Z,1028.71
2023-02-11T08:59:42.654Z,1028.69
2023-02-11T09:00:42.600Z,1028.66
2023-02-11T09:01:42.635Z,1028.69
2023-02-11T09:02:42.636Z,1028.72
2023-02-11T09:03:42.613Z,1028.72
2023-02-11T09:04:42.585Z,1028.74
2023-02-11T09:05:42.564Z,1028.74
2023-02-11T09:06:42.636Z,1028.71
2023-02-11T09:07:42.546Z,1028.73
2023-02-11T09:08:45.325Z,1028.74
2023-02-11T09:09:42.548Z,1028.75
2023-02-11T09:10:42.559Z,1028.78
2023-02-11T09:11:42.548Z,1028.78
2023-02-11T09:12:42.614Z,1028.78
2023-02-11T09:13:42.495Z,1028.79
2023-02-11T09:14:42.492Z,1028.80
2023-02-11T09:15:42.463Z,1028.82
2023-02-11T09:16:42.525Z,1028.86
2023-02-11T09:17:42.452Z,1028.88
2023-02-11T09:18:42.492Z,1028.88
2023-02-11T09:19:42.429Z,1028.89
2023-02-11T09:20:42.401Z,1028.89
2023-02-11T09:21:42.501Z,1028.90
2023-02-11T09:22:42.406Z,1028.91
2023-02-11T09:23:42.440Z,1028.91
2023-02-11T09:24:42.385Z,1028.92
2023-02-11T09:25:42.393Z,1028.94
2023-02-11T09:26:42.373Z,1028.95
2023-02-11T09:27:42.356Z,1028.95
2023-02-11T09:28:42.368Z,1028.94
2023-02-11T09:29:42.342Z,1028.94
2023-02-11T09:30:42.412Z,1028.95
2023-02-11T09:31:42.444Z,1028.97
2023-02-11T09:32:42.419Z,1028.98
2023-02-11T09:33:42.314Z,1028.99
2023-02-11T09:34:42.276Z,1029.00
2023-02-11T09:35:42.288Z,1029.01
2023-02-11T09:36:42.315Z,1029.04
2023-02-11T09:37:42.257Z,1029.05
2023-02-11T09:38:42.251Z,1029.09
2023-02-11T09:39:42.230Z,1029.12
2023-02-11T09:40:42.316Z,1029.11
2023-02-11T09:41:42.225Z,1029.12
2023-02-11T09:42:42.209Z,1029.12
2023-02-11T09:43:42.232Z,1029.13
2023-02-11T09:44:42.178Z,1029.13
2023-02-11T09:45:42.166Z,1029.13
2023-02-11T09:46:42.192Z,1029.15
2023-02-11T09:47:42.165Z,1029.20
2023-02-11T09:48:42.155Z,1029.22
2023-02-11T09:49:42.123Z,1029.24
2023-02-11T09:50:42.171Z,1029.26
2023-02-11T09:51:42.141Z,1029.27
2023-02-11T09:52:42.104Z,1029.26
2023-02-11T09:53:42.240Z,1029.28
2023-02-11T09:54:42.070Z,1029.30
2023-02-11T09:55:42.113Z,1029.28
2023-02-11T09:56:42.081Z,1029.27
2023-02-11T09:57:42.053Z,1029.28
2023-02-11T09:58:42.051Z,1029.30
2023-02-11T09:59:42.060Z,1029.29
2023-02-11T10:00:42.024Z,1029.28
2023-02-11T10:01:42.067Z,1029.27
2023-02-11T10:02:41.994Z,1029.28
2023-02-11T10:03:42.002Z,1029.28
2023-02-11T10:04:42.015Z,1029.25
2023-02-11T10:05:42.075Z,1029.24
2023-02-11T10:06:42.012Z,1029.25
2023-02-11T10:07:41.954Z,1029.24
2023-02-11T10:08:41.934Z,1029.26
2023-02-11T10:09:41.923Z,1029.28
2023-02-11T10:10:41.906Z,1029.29
2023-02-11T10:11:41.922Z,1029.31
2023-02-11T10:12:41.960Z,1029.29
2023-02-11T10:13:42.703Z,1029.27
2023-02-11T10:14:41.880Z,1029.32
2023-02-11T10:15:41.917Z,1029.33
2023-02-11T10:16:41.911Z,1029.34
2023-02-11T10:17:41.907Z,1029.39
2023-02-11T10:18:41.841Z,1029.40
2023-02-11T10:19:41.844Z,1029.43
2023-02-11T10:20:41.787Z,1029.45
2023-02-11T10:21:41.837Z,1029.47
2023-02-11T10:22:41.805Z,1029.49
2023-02-11T10:23:41.780Z,1029.49
2023-02-11T10:24:41.791Z,1029.50
2023-02-11T10:25:44.290Z,1029.50
2023-02-11T10:26:41.777Z,1029.53
2023-02-11T10:27:41.784Z,1029.54
2023-02-11T10:28:41.756Z,1029.54
2023-02-11T10:29:41.717Z,1029.53
2023-02-11T10:30:41.732Z,1029.54
2023-02-11T10:31:41.813Z,1029.55
2023-02-11T10:32:41.732Z,1029.59
2023-02-11T10:33:41.700Z,1029.59
2023-02-11T10:34:41.663Z,1029.58
2023-02-11T10:35:41.735Z,1029.57
2023-02-11T10:36:41.669Z,1029.60
2023-02-11T10:37:44.404Z,1029.64
2023-02-11T10:38:41.718Z,1029.67
2023-02-11T10:39:41.639Z,1029.70
2023-02-11T10:40:41.676Z,1029.73
2023-02-11T10:41:41.594Z,1029.75
2023-02-11T10:42:41.678Z,1029.75
2023-02-11T10:43:41.593Z,1029.79
2023-02-11T10:44:41.646Z,1029.84
2023-02-11T10:45:41.568Z,1029.84
2023-02-11T10:46:41.559Z,1029.86
2023-02-11T10:47:41.525Z,1029.84
2023-02-11T10:48:41.568Z,1029.85
2023-02-11T10:49:41.536Z,1029.85
2023-02-11T10:50:41.480Z,1029.88
2023-02-11T10:51:41.497Z,1029.87
2023-02-11T10:52:41.583Z,1029.87
2023-02-11T10:53:41.469Z,1029.86
2023-02-11T10:54:41.475Z,1029.87
2023-02-11T10:55:41.449Z,1029.88
2023-02-11T10:56:41.493Z,1029.87
2023-02-11T10:57:41.428Z,1029.86
2023-02-11T10:58:41.426Z,1029.86
2023-02-11T10:59:41.426Z,1029.82
2023-02-11T11:00:41.729Z,1029.78
2023-02-11T11:01:41.488Z,1029.77
2023-02-11T11:02:41.361Z,1029.76
2023-02-11T11:03:41.410Z,1029.77
2023-02-11T11:04:41.491Z,1029.76
2023-02-11T11:05:41.337Z,1029.77
2023-02-11T11:06:41.400Z,1029.79
2023-02-11T11:07:41.323Z,1029.81
2023-02-11T11:08:41.354Z,1029.81
2023-02-11T11:09:41.290Z,1029.80
2023-02-11T11:10:41.377Z,1029.82
2023-02-11T11:11:41.283Z,1029.79
2023-02-11T11:12:42.360Z,1029.81
2023-02-11T11:13:41.333Z,1029.83
2023-02-11T11:14:41.250Z,1029.84
2023-02-11T11:15:41.305Z,1029.86
2023-02-11T11:16:41.258Z,1029.86
2023-02-11T11:17:41.264Z,1029.86
2023-02-11T11:18:41.217Z,1029.85
2023-02-11T11:19:41.195Z,1029.83
2023-02-11T11:20:41.251Z,1029.80
2023-02-11T11:21:41.187Z,1029.80
2023-02-11T11:22:41.186Z,1029.80
2023-02-11T11:23:41.227Z,1029.80
2023-02-11T11:24:41.180Z,1029.78
2023-02-11T11:25:41.151Z,1029.77
2023-02-11T11:26:41.200Z,1029.77
2023-02-11T11:27:41.136Z,1029.75
2023-02-11T11:28:41.321Z,1029.75
2023-02-11T11:29:41.109Z,1029.76
2023-02-11T11:30:41.109Z,1029.74
2023-02-11T11:31:41.105Z,1029.74
2023-02-11T11:32:41.071Z,1029.70
2023-02-11T11:33:41.089Z,1029.70
2023-02-11T11:34:41.081Z,1029.69
2023-02-11T11:35:41.061Z,1029.70
2023-02-11T11:36:41.089Z,1029.68
2023-02-11T11:37:41.045Z,1029.72
2023-02-11T11:38:41.121Z,1029.76
2023-02-11T11:39:40.984Z,1029.75
2023-02-11T11:40:41.124Z,1029.78
2023-02-11T11:41:41.075Z,1029.77
2023-02-11T11:42:40.971Z,1029.76
2023-02-11T11:43:40.988Z,1029.77
2023-02-11T11:44:40.934Z,1029.75
2023-02-11T11:45:40.934Z,1029.73
2023-02-11T11:46:40.982Z,1029.72
2023-02-11T11:47:40.961Z,1029.69
2023-02-11T11:48:40.954Z,1029.67
2023-02-11T11:49:40.889Z,1029.65
2023-02-11T11:50:40.922Z,1029.63
2023-02-11T11:51:40.856Z,1029.63
2023-02-11T11:52:40.873Z,1029.63
2023-02-11T11:53:40.864Z,1029.67
2023-02-11T11:54:40.843Z,1029.69
2023-02-11T11:55:40.840Z,1029.71
2023-02-11T11:56:40.823Z,1029.74
2023-02-11T11:57:40.851Z,1029.73
2023-02-11T11:58:40.940Z,1029.71
2023-02-11T11:59:40.773Z,1029.68
2023-02-11T12:00:40.834Z,1029.69
2023-02-11T12:01:40.802Z,1029.69
2023-02-11T12:02:40.825Z,1029.68
2023-02-11T12:03:40.766Z,1029.69
2023-02-11T12:04:40.810Z,1029.67
2023-02-11T12:05:40.714Z,1029.71